sensor_id;sensor_type;location;lat;lon;timestamp;P1;durP1;ratioP1;P2;durP2;ratioP2
38605;SDS011;24365;48.446;8.850;2023-06-22T00:00:51;8.70;;;6.50;;
38605;SDS011;24365;48.446;8.850;2023-06-22T00:05:53;9.13;;;6.47;;
38605;SDS011;24365;48.446;8.850;2023-06-22T00:10:54;7.72;;;6.57;;
38605;SDS011;24365;48.446;8.850;2023-06-22T00:15:55;8.73;;;6.45;;
38605;SDS011;24365;48.446;8.850;2023-06-22T00:20:56;10.40;;;6.85;;
38605;SDS011;24365;48.446;8.850;2023-06-22T00:25:58;12.68;;;6.88;;
38605;SDS011;24365;48.446;8.850;2023-06-22T00:31:00;11.18;;;6.90;;
38605;SDS011;24365;48.446;8.850;2023-06-22T00:36:02;13.52;;;7.07;;
38605;SDS011;24365;48.446;8.850;2023-06-22T00:41:04;10.07;;;7.03;;
38605;SDS011;24365;48.446;8.850;2023-06-22T00:51:07;11.17;;;7.17;;
38605;SDS011;24365;48.446;8.850;2023-06-22T01:06:13;14.30;;;8.90;;
38605;SDS011;24365;48.446;8.850;2023-06-22T01:16:29;11.18;;;8.75;;
38605;SDS011;24365;48.446;8.850;2023-06-22T01:21:31;9.07;;;6.90;;
38605;SDS011;24365;48.446;8.850;2023-06-22T01:26:54;9.98;;;6.90;;
38605;SDS011;24365;48.446;8.850;2023-06-22T01:31:58;10.20;;;7.38;;
38605;SDS011;24365;48.446;8.850;2023-06-22T01:37:02;12.00;;;8.13;;
38605;SDS011;24365;48.446;8.850;2023-06-22T01:42:04;9.25;;;6.63;;
38605;SDS011;24365;48.446;8.850;2023-06-22T01:47:06;10.30;;;7.40;;
38605;SDS011;24365;48.446;8.850;2023-06-22T01:52:10;10.57;;;6.97;;
38605;SDS011;24365;48.446;8.850;2023-06-22T02:02:13;12.13;;;6.63;;
38605;SDS011;24365;48.446;8.850;2023-06-22T02:07:17;14.73;;;7.75;;
38605;SDS011;24365;48.446;8.850;2023-06-22T02:12:22;11.55;;;7.60;;
38605;SDS011;24365;48.446;8.850;2023-06-22T02:17:26;12.07;;;7.88;;
38605;SDS011;24365;48.446;8.850;2023-06-22T02:22:27;12.68;;;7.85;;
38605;SDS011;24365;48.446;8.850;2023-06-22T02:27:28;9.95;;;7.07;;
38605;SDS011;24365;48.446;8.850;2023-06-22T02:32:30;12.80;;;8.43;;
38605;SDS011;24365;48.446;8.850;2023-06-22T02:37:37;13.98;;;8.48;;
38605;SDS011;24365;48.446;8.850;2023-06-22T02:42:41;12.18;;;7.68;;
38605;SDS011;24365;48.446;8.850;2023-06-22T02:47:42;12.82;;;8.40;;
38605;SDS011;24365;48.446;8.850;2023-06-22T02:52:43;12.55;;;8.10;;
38605;SDS011;24365;48.446;8.850;2023-06-22T02:57:45;10.93;;;7.63;;
38605;SDS011;24365;48.446;8.850;2023-06-22T03:02:48;11.55;;;7.47;;
38605;SDS011;24365;48.446;8.850;2023-06-22T03:07:50;13.57;;;8.07;;
38605;SDS011;24365;48.446;8.850;2023-06-22T03:12:51;13.48;;;7.47;;
38605;SDS011;24365;48.446;8.850;2023-06-22T03:17:56;11.60;;;7.47;;
38605;SDS011;24365;48.446;8.850;2023-06-22T03:22:57;11.00;;;7.43;;
38605;SDS011;24365;48.446;8.850;2023-06-22T03:28:01;13.65;;;8.15;;
38605;SDS011;24365;48.446;8.850;2023-06-22T03:33:02;12.25;;;7.38;;
38605;SDS011;24365;48.446;8.850;2023-06-22T03:38:04;16.10;;;7.57;;
38605;SDS011;24365;48.446;8.850;2023-06-22T03:43:05;10.82;;;7.97;;
38605;SDS011;24365;48.446;8.850;2023-06-22T03:48:06;11.80;;;7.75;;
38605;SDS011;24365;48.446;8.850;2023-06-22T03:53:07;14.63;;;8.15;;
38605;SDS011;24365;48.446;8.850;2023-06-22T03:58:11;12.50;;;7.57;;
38605;SDS011;24365;48.446;8.850;2023-06-22T04:08:14;19.37;;;8.00;;
38605;SDS011;24365;48.446;8.850;2023-06-22T04:13:15;16.50;;;8.50;;
38605;SDS011;24365;48.446;8.850;2023-06-22T04:18:16;13.35;;;7.85;;
38605;SDS011;24365;48.446;8.850;2023-06-22T04:23:17;14.27;;;9.23;;
38605;SDS011;24365;48.446;8.850;2023-06-22T04:28:18;14.37;;;7.70;;
38605;SDS011;24365;48.446;8.850;2023-06-22T04:33:19;16.13;;;7.72;;
38605;SDS011;24365;48.446;8.850;2023-06-22T04:38:20;15.37;;;9.17;;
38605;SDS011;24365;48.446;8.850;2023-06-22T04:43:23;20.70;;;9.20;;
38605;SDS011;24365;48.446;8.850;2023-06-22T04:48:24;12.27;;;8.38;;
38605;SDS011;24365;48.446;8.850;2023-06-22T04:53:25;14.45;;;8.88;;
38605;SDS011;24365;48.446;8.850;2023-06-22T04:58:30;15.40;;;8.30;;
38605;SDS011;24365;48.446;8.850;2023-06-22T05:03:32;12.27;;;8.35;;
38605;SDS011;24365;48.446;8.850;2023-06-22T05:08:33;19.17;;;9.38;;
38605;SDS011;24365;48.446;8.850;2023-06-22T05:13:35;17.40;;;10.45;;
38605;SDS011;24365;48.446;8.850;2023-06-22T05:18:36;21.85;;;11.02;;
38605;SDS011;24365;48.446;8.850;2023-06-22T05:23:37;17.25;;;9.52;;
38605;SDS011;24365;48.446;8.850;2023-06-22T05:28:38;13.77;;;8.55;;
38605;SDS011;24365;48.446;8.850;2023-06-22T05:33:38;21.35;;;9.90;;
38605;SDS011;24365;48.446;8.850;2023-06-22T05:38:40;16.63;;;9.65;;
38605;SDS011;24365;48.446;8.850;2023-06-22T05:43:42;22.98;;;10.48;;
38605;SDS011;24365;48.446;8.850;2023-06-22T05:48:43;14.93;;;9.93;;
38605;SDS011;24365;48.446;8.850;2023-06-22T05:53:43;14.23;;;8.02;;
38605;SDS011;24365;48.446;8.850;2023-06-22T05:58:47;12.00;;;8.40;;
38605;SDS011;24365;48.446;8.850;2023-06-22T06:03:48;18.23;;;10.25;;
38605;SDS011;24365;48.446;8.850;2023-06-22T06:13:50;16.73;;;10.73;;
38605;SDS011;24365;48.446;8.850;2023-06-22T06:18:51;14.93;;;8.98;;
38605;SDS011;24365;48.446;8.850;2023-06-22T06:23:55;15.02;;;9.98;;
38605;SDS011;24365;48.446;8.850;2023-06-22T06:28:56;15.18;;;9.45;;
38605;SDS011;24365;48.446;8.850;2023-06-22T06:33:58;13.25;;;7.97;;
38605;SDS011;24365;48.446;8.850;2023-06-22T06:38:59;14.30;;;8.23;;
38605;SDS011;24365;48.446;8.850;2023-06-22T06:44:00;17.77;;;8.38;;
38605;SDS011;24365;48.446;8.850;2023-06-22T06:49:02;11.10;;;6.60;;
38605;SDS011;24365;48.446;8.850;2023-06-22T06:54:03;12.07;;;7.32;;
38605;SDS011;24365;48.446;8.850;2023-06-22T06:59:04;14.60;;;7.45;;
38605;SDS011;24365;48.446;8.850;2023-06-22T07:04:05;9.73;;;6.68;;
38605;SDS011;24365;48.446;8.850;2023-06-22T07:09:06;11.68;;;7.28;;
38605;SDS011;24365;48.446;8.850;2023-06-22T07:14:07;13.05;;;7.15;;
38605;SDS011;24365;48.446;8.850;2023-06-22T07:19:10;15.18;;;6.53;;
38605;SDS011;24365;48.446;8.850;2023-06-22T07:24:13;12.48;;;6.05;;
38605;SDS011;24365;48.446;8.850;2023-06-22T07:29:16;12.15;;;6.03;;
38605;SDS011;24365;48.446;8.850;2023-06-22T07:34:18;15.15;;;7.88;;
38605;SDS011;24365;48.446;8.850;2023-06-22T07:39:19;12.88;;;6.55;;
38605;SDS011;24365;48.446;8.850;2023-06-22T07:44:26;10.93;;;6.55;;
38605;SDS011;24365;48.446;8.850;2023-06-22T07:49:27;12.30;;;7.03;;
38605;SDS011;24365;48.446;8.850;2023-06-22T07:54:28;13.60;;;6.25;;
38605;SDS011;24365;48.446;8.850;2023-06-22T08:04:30;13.45;;;5.82;;
38605;SDS011;24365;48.446;8.850;2023-06-22T08:09:34;10.23;;;5.57;;
38605;SDS011;24365;48.446;8.850;2023-06-22T08:14:37;11.60;;;5.88;;
38605;SDS011;24365;48.446;8.850;2023-06-22T08:19:39;10.98;;;6.40;;
38605;SDS011;24365;48.446;8.850;2023-06-22T08:24:41;11.73;;;5.72;;
38605;SDS011;24365;48.446;8.850;2023-06-22T08:34:42;10.23;;;5.85;;
38605;SDS011;24365;48.446;8.850;2023-06-22T08:39:44;12.27;;;6.35;;
38605;SDS011;24365;48.446;8.850;2023-06-22T08:44:45;14.00;;;5.85;;
38605;SDS011;24365;48.446;8.850;2023-06-22T08:54:47;12.90;;;6.10;;
38605;SDS011;24365;48.446;8.850;2023-06-22T08:59:48;12.85;;;5.75;;
38605;SDS011;24365;48.446;8.850;2023-06-22T09:04:52;13.73;;;6.50;;
38605;SDS011;24365;48.446;8.850;2023-06-22T09:09:55;9.68;;;6.18;;
38605;SDS011;24365;48.446;8.850;2023-06-22T09:14:57;10.70;;;5.75;;
38605;SDS011;24365;48.446;8.850;2023-06-22T09:19:58;11.00;;;5.68;;
38605;SDS011;24365;48.446;8.850;2023-06-22T09:25:00;10.70;;;6.80;;
38605;SDS011;24365;48.446;8.850;2023-06-22T09:30:01;9.98;;;5.18;;
38605;SDS011;24365;48.446;8.850;2023-06-22T09:35:04;12.35;;;5.80;;
38605;SDS011;24365;48.446;8.850;2023-06-22T09:40:07;13.25;;;6.32;;
38605;SDS011;24365;48.446;8.850;2023-06-22T09:45:12;13.45;;;6.28;;
38605;SDS011;24365;48.446;8.850;2023-06-22T09:50:13;17.27;;;5.93;;
38605;SDS011;24365;48.446;8.850;2023-06-22T09:55:14;15.25;;;6.40;;
38605;SDS011;24365;48.446;8.850;2023-06-22T10:00:17;11.93;;;6.18;;
38605;SDS011;24365;48.446;8.850;2023-06-22T10:05:19;14.88;;;6.85;;
38605;SDS011;24365;48.446;8.850;2023-06-22T10:10:20;14.02;;;6.72;;
38605;SDS011;24365;48.446;8.850;2023-06-22T10:15:21;10.98;;;5.78;;
38605;SDS011;24365;48.446;8.850;2023-06-22T10:20:22;13.75;;;6.38;;
38605;SDS011;24365;48.446;8.850;2023-06-22T10:25:23;14.10;;;6.22;;
38605;SDS011;24365;48.446;8.850;2023-06-22T10:30:24;15.15;;;6.60;;
38605;SDS011;24365;48.446;8.850;2023-06-22T10:35:25;12.43;;;5.95;;
38605;SDS011;24365;48.446;8.850;2023-06-22T10:40:26;12.27;;;6.35;;
38605;SDS011;24365;48.446;8.850;2023-06-22T10:45:27;12.82;;;6.60;;
38605;SDS011;24365;48.446;8.850;2023-06-22T10:50:28;14.32;;;6.78;;
38605;SDS011;24365;48.446;8.850;2023-06-22T10:55:29;14.30;;;5.88;;
38605;SDS011;24365;48.446;8.850;2023-06-22T11:00:30;13.63;;;6.03;;
38605;SDS011;24365;48.446;8.850;2023-06-22T11:05:32;13.32;;;6.63;;
38605;SDS011;24365;48.446;8.850;2023-06-22T11:10:33;15.48;;;6.15;;
38605;SDS011;24365;48.446;8.850;2023-06-22T11:15:34;17.30;;;6.10;;
38605;SDS011;24365;48.446;8.850;2023-06-22T11:20:34;12.55;;;5.95;;
38605;SDS011;24365;48.446;8.850;2023-06-22T11:25:38;13.55;;;6.30;;
38605;SDS011;24365;48.446;8.850;2023-06-22T11:30:40;15.00;;;6.22;;
38605;SDS011;24365;48.446;8.850;2023-06-22T11:35:41;13.95;;;6.15;;
38605;SDS011;24365;48.446;8.850;2023-06-22T11:40:41;15.35;;;6.57;;
38605;SDS011;24365;48.446;8.850;2023-06-22T11:45:42;12.27;;;6.03;;
38605;SDS011;24365;48.446;8.850;2023-06-22T11:50:43;10.70;;;5.72;;
38605;SDS011;24365;48.446;8.850;2023-06-22T11:55:44;10.98;;;6.10;;
38605;SDS011;24365;48.446;8.850;2023-06-22T12:00:46;9.43;;;5.70;;
38605;SDS011;24365;48.446;8.850;2023-06-22T12:05:47;11.75;;;6.25;;
38605;SDS011;24365;48.446;8.850;2023-06-22T12:10:50;14.35;;;6.30;;
38605;SDS011;24365;48.446;8.850;2023-06-22T12:15:51;10.77;;;5.80;;
38605;SDS011;24365;48.446;8.850;2023-06-22T12:20:52;13.18;;;5.97;;
38605;SDS011;24365;48.446;8.850;2023-06-22T12:25:53;10.05;;;5.25;;
38605;SDS011;24365;48.446;8.850;2023-06-22T12:30:54;10.45;;;6.55;;
38605;SDS011;24365;48.446;8.850;2023-06-22T12:35:56;11.80;;;6.10;;
38605;SDS011;24365;48.446;8.850;2023-06-22T12:40:58;9.20;;;5.53;;
38605;SDS011;24365;48.446;8.850;2023-06-22T12:45:59;13.93;;;5.63;;
38605;SDS011;24365;48.446;8.850;2023-06-22T12:51:00;10.27;;;5.68;;
38605;SDS011;24365;48.446;8.850;2023-06-22T12:56:01;11.00;;;6.05;;
38605;SDS011;24365;48.446;8.850;2023-06-22T13:01:02;9.80;;;6.00;;
38605;SDS011;24365;48.446;8.850;2023-06-22T13:06:03;12.48;;;6.25;;
38605;SDS011;24365;48.446;8.850;2023-06-22T13:11:04;11.57;;;6.82;;
38605;SDS011;24365;48.446;8.850;2023-06-22T13:16:05;10.68;;;6.65;;
38605;SDS011;24365;48.446;8.850;2023-06-22T13:21:07;17.73;;;7.05;;
38605;SDS011;24365;48.446;8.850;2023-06-22T13:26:08;16.23;;;7.13;;
38605;SDS011;24365;48.446;8.850;2023-06-22T13:31:09;16.25;;;6.80;;
38605;SDS011;24365;48.446;8.850;2023-06-22T13:36:10;10.00;;;6.10;;
38605;SDS011;24365;48.446;8.850;2023-06-22T13:41:11;13.57;;;6.35;;
38605;SDS011;24365;48.446;8.850;2023-06-22T13:46:12;18.13;;;7.68;;
38605;SDS011;24365;48.446;8.850;2023-06-22T13:51:13;12.57;;;5.85;;
38605;SDS011;24365;48.446;8.850;2023-06-22T13:56:14;12.50;;;6.60;;
38605;SDS011;24365;48.446;8.850;2023-06-22T14:01:15;16.08;;;6.88;;
38605;SDS011;24365;48.446;8.850;2023-06-22T14:06:16;18.27;;;6.93;;
38605;SDS011;24365;48.446;8.850;2023-06-22T14:11:17;17.48;;;7.82;;
38605;SDS011;24365;48.446;8.850;2023-06-22T14:16:18;19.85;;;6.78;;
38605;SDS011;24365;48.446;8.850;2023-06-22T14:21:18;21.77;;;6.95;;
38605;SDS011;24365;48.446;8.850;2023-06-22T14:26:19;14.25;;;7.00;;
38605;SDS011;24365;48.446;8.850;2023-06-22T14:31:22;19.63;;;7.25;;
38605;SDS011;24365;48.446;8.850;2023-06-22T14:36:23;16.05;;;5.25;;
38605;SDS011;24365;48.446;8.850;2023-06-22T14:41:24;16.05;;;4.85;;
38605;SDS011;24365;48.446;8.850;2023-06-22T14:46:25;14.00;;;4.38;;
38605;SDS011;24365;48.446;8.850;2023-06-22T14:51:27;11.90;;;4.03;;
38605;SDS011;24365;48.446;8.850;2023-06-22T14:56:28;15.88;;;4.40;;
38605;SDS011;24365;48.446;8.850;2023-06-22T15:01:31;8.70;;;3.55;;
38605;SDS011;24365;48.446;8.850;2023-06-22T15:06:32;8.30;;;3.58;;
38605;SDS011;24365;48.446;8.850;2023-06-22T15:11:35;10.32;;;3.28;;
38605;SDS011;24365;48.446;8.850;2023-06-22T15:16:36;13.73;;;3.55;;
38605;SDS011;24365;48.446;8.850;2023-06-22T15:21:37;15.45;;;3.92;;
38605;SDS011;24365;48.446;8.850;2023-06-22T15:26:38;13.30;;;3.58;;
38605;SDS011;24365;48.446;8.850;2023-06-22T15:31:39;11.38;;;3.88;;
38605;SDS011;24365;48.446;8.850;2023-06-22T15:36:40;14.35;;;4.25;;
38605;SDS011;24365;48.446;8.850;2023-06-22T15:41:41;11.80;;;4.18;;
38605;SDS011;24365;48.446;8.850;2023-06-22T15:46:42;13.20;;;4.38;;
38605;SDS011;24365;48.446;8.850;2023-06-22T15:51:44;13.88;;;4.43;;
38605;SDS011;24365;48.446;8.850;2023-06-22T15:56:45;15.52;;;4.68;;
38605;SDS011;24365;48.446;8.850;2023-06-22T16:01:46;12.43;;;4.35;;
38605;SDS011;24365;48.446;8.850;2023-06-22T16:06:47;9.43;;;3.28;;
38605;SDS011;24365;48.446;8.850;2023-06-22T16:11:48;9.20;;;4.32;;
38605;SDS011;24365;48.446;8.850;2023-06-22T16:16:49;12.10;;;4.43;;
38605;SDS011;24365;48.446;8.850;2023-06-22T16:21:50;14.20;;;4.50;;
38605;SDS011;24365;48.446;8.850;2023-06-22T16:26:51;14.68;;;5.30;;
38605;SDS011;24365;48.446;8.850;2023-06-22T16:31:52;9.30;;;4.35;;
38605;SDS011;24365;48.446;8.850;2023-06-22T16:36:54;9.95;;;4.05;;
38605;SDS011;24365;48.446;8.850;2023-06-22T16:41:55;11.07;;;3.38;;
38605;SDS011;24365;48.446;8.850;2023-06-22T16:46:59;9.32;;;2.97;;
38605;SDS011;24365;48.446;8.850;2023-06-22T16:52:02;13.45;;;3.45;;
38605;SDS011;24365;48.446;8.850;2023-06-22T16:57:03;8.38;;;3.10;;
38605;SDS011;24365;48.446;8.850;2023-06-22T17:02:05;7.38;;;3.08;;
38605;SDS011;24365;48.446;8.850;2023-06-22T17:07:17;9.43;;;3.13;;
38605;SDS011;24365;48.446;8.850;2023-06-22T17:12:19;11.15;;;3.95;;
38605;SDS011;24365;48.446;8.850;2023-06-22T17:17:23;11.35;;;4.13;;
38605;SDS011;24365;48.446;8.850;2023-06-22T17:22:29;13.25;;;3.50;;
38605;SDS011;24365;48.446;8.850;2023-06-22T17:27:39;11.55;;;2.95;;
38605;SDS011;24365;48.446;8.850;2023-06-22T17:32:48;13.73;;;3.35;;
38605;SDS011;24365;48.446;8.850;2023-06-22T17:37:51;9.25;;;2.70;;
38605;SDS011;24365;48.446;8.850;2023-06-22T17:43:03;9.23;;;2.65;;
38605;SDS011;24365;48.446;8.850;2023-06-22T17:53:13;7.95;;;2.97;;
38605;SDS011;24365;48.446;8.850;2023-06-22T17:58:14;9.10;;;2.78;;
38605;SDS011;24365;48.446;8.850;2023-06-22T18:03:17;6.38;;;2.78;;
38605;SDS011;24365;48.446;8.850;2023-06-22T18:08:25;11.82;;;3.03;;
38605;SDS011;24365;48.446;8.850;2023-06-22T18:13:27;10.50;;;2.67;;
38605;SDS011;24365;48.446;8.850;2023-06-22T18:18:29;9.95;;;2.85;;
38605;SDS011;24365;48.446;8.850;2023-06-22T18:23:33;7.93;;;2.85;;
38605;SDS011;24365;48.446;8.850;2023-06-22T18:28:36;8.43;;;3.28;;
38605;SDS011;24365;48.446;8.850;2023-06-22T18:33:38;15.68;;;3.40;;
38605;SDS011;24365;48.446;8.850;2023-06-22T18:38:41;8.07;;;3.60;;
38605;SDS011;24365;48.446;8.850;2023-06-22T18:43:51;9.15;;;2.80;;
38605;SDS011;24365;48.446;8.850;2023-06-22T18:48:58;12.15;;;3.45;;
38605;SDS011;24365;48.446;8.850;2023-06-22T18:54:03;5.53;;;2.65;;
38605;SDS011;24365;48.446;8.850;2023-06-22T19:11:12;6.70;;;3.50;;
38605;SDS011;24365;48.446;8.850;2023-06-22T19:16:13;9.88;;;3.05;;
38605;SDS011;24365;48.446;8.850;2023-06-22T19:21:21;8.50;;;3.47;;
38605;SDS011;24365;48.446;8.850;2023-06-22T19:26:23;10.60;;;3.70;;
38605;SDS011;24365;48.446;8.850;2023-06-22T19:31:25;7.00;;;3.50;;
38605;SDS011;24365;48.446;8.850;2023-06-22T19:36:32;6.50;;;2.95;;
38605;SDS011;24365;48.446;8.850;2023-06-22T19:41:38;8.38;;;3.17;;
38605;SDS011;24365;48.446;8.850;2023-06-22T19:46:39;5.18;;;2.45;;
38605;SDS011;24365;48.446;8.850;2023-06-22T19:51:42;7.13;;;2.53;;
38605;SDS011;24365;48.446;8.850;2023-06-22T19:56:43;9.05;;;2.75;;
38605;SDS011;24365;48.446;8.850;2023-06-22T20:01:44;9.32;;;3.20;;
38605;SDS011;24365;48.446;8.850;2023-06-22T20:07:01;6.63;;;3.20;;
38605;SDS011;24365;48.446;8.850;2023-06-22T20:12:03;9.43;;;2.97;;
38605;SDS011;24365;48.446;8.850;2023-06-22T20:17:04;11.60;;;3.90;;
38605;SDS011;24365;48.446;8.850;2023-06-22T20:22:06;6.40;;;3.40;;
38605;SDS011;24365;48.446;8.850;2023-06-22T20:27:11;7.95;;;3.38;;
38605;SDS011;24365;48.446;8.850;2023-06-22T20:32:12;6.05;;;3.40;;
38605;SDS011;24365;48.446;8.850;2023-06-22T20:37:14;7.28;;;3.38;;
38605;SDS011;24365;48.446;8.850;2023-06-22T20:42:25;7.13;;;3.25;;
38605;SDS011;24365;48.446;8.850;2023-06-22T20:47:38;4.18;;;2.47;;
38605;SDS011;24365;48.446;8.850;2023-06-22T20:52:41;6.22;;;2.70;;
38605;SDS011;24365;48.446;8.850;2023-06-22T20:57:43;7.95;;;2.63;;
38605;SDS011;24365;48.446;8.850;2023-06-22T21:02:44;4.07;;;2.40;;
38605;SDS011;24365;48.446;8.850;2023-06-22T21:07:45;8.05;;;2.65;;
38605;SDS011;24365;48.446;8.850;2023-06-22T21:12:48;4.72;;;2.30;;
38605;SDS011;24365;48.446;8.850;2023-06-22T21:17:49;5.57;;;2.10;;
38605;SDS011;24365;48.446;8.850;2023-06-22T21:22:50;3.47;;;1.98;;
38605;SDS011;24365;48.446;8.850;2023-06-22T21:32:53;3.97;;;2.50;;
38605;SDS011;24365;48.446;8.850;2023-06-22T21:37:54;6.97;;;2.35;;
38605;SDS011;24365;48.446;8.850;2023-06-22T21:42:55;6.60;;;2.25;;
38605;SDS011;24365;48.446;8.850;2023-06-22T21:47:57;5.88;;;2.20;;
38605;SDS011;24365;48.446;8.850;2023-06-22T21:52:58;2.53;;;1.50;;
38605;SDS011;24365;48.446;8.850;2023-06-22T21:58:02;3.50;;;2.00;;
38605;SDS011;24365;48.446;8.850;2023-06-22T22:03:03;2.40;;;1.70;;
38605;SDS011;24365;48.446;8.850;2023-06-22T22:08:04;2.45;;;1.63;;
38605;SDS011;24365;48.446;8.850;2023-06-22T22:13:05;6.05;;;1.60;;
38605;SDS011;24365;48.446;8.850;2023-06-22T22:18:06;3.65;;;1.70;;
38605;SDS011;24365;48.446;8.850;2023-06-22T22:23:08;2.63;;;1.60;;
38605;SDS011;24365;48.446;8.850;2023-06-22T22:28:09;3.13;;;1.63;;
38605;SDS011;24365;48.446;8.850;2023-06-22T22:33:10;3.42;;;1.90;;
38605;SDS011;24365;48.446;8.850;2023-06-22T22:38:11;4.70;;;1.80;;
38605;SDS011;24365;48.446;8.850;2023-06-22T22:43:12;3.30;;;1.83;;
38605;SDS011;24365;48.446;8.850;2023-06-22T22:48:13;4.10;;;1.80;;
38605;SDS011;24365;48.446;8.850;2023-06-22T22:53:14;2.65;;;1.70;;
38605;SDS011;24365;48.446;8.850;2023-06-22T22:58:18;3.58;;;1.67;;
38605;SDS011;24365;48.446;8.850;2023-06-22T23:03:20;1.55;;;1.20;;
38605;SDS011;24365;48.446;8.850;2023-06-22T23:08:21;2.58;;;1.48;;
38605;SDS011;24365;48.446;8.850;2023-06-22T23:13:22;4.68;;;1.83;;
38605;SDS011;24365;48.446;8.850;2023-06-22T23:18:23;1.65;;;1.05;;
38605;SDS011;24365;48.446;8.850;2023-06-22T23:23:24;3.00;;;1.38;;
38605;SDS011;24365;48.446;8.850;2023-06-22T23:28:25;1.35;;;1.20;;
38605;SDS011;24365;48.446;8.850;2023-06-22T23:33:26;3.40;;;1.35;;
38605;SDS011;24365;48.446;8.850;2023-06-22T23:38:28;3.15;;;1.35;;
38605;SDS011;24365;48.446;8.850;2023-06-22T23:43:29;2.22;;;1.45;;
38605;SDS011;24365;48.446;8.850;2023-06-22T23:48:30;5.35;;;2.00;;
38605;SDS011;24365;48.446;8.850;2023-06-22T23:53:31;2.80;;;1.60;;
38605;SDS011;24365;48.446;8.850;2023-06-22T23:58:32;2.45;;;1.40;;
